Time;durP1;ratioP1;P1;durP2;ratioP2;P2;SDS_P1;SDS_P2;PMS_P1;PMS_P2;Temp;Humidity;BMP_temperature;BMP_pressure;BME280_temperature;BME280_humidity;BME280_pressure;Samples;Min_cycle;Max_cycle;Signal;HPM_P1;HPM_P2
2022/01/06 00:01:49;;;;;;;2.35;1.48;;;;;;;;;;4995838;28;20372;-36
2022/01/06 00:04:15;;;;;;;2.40;1.60;;;;;;;;;;4996147;28;20031;-36
2022/01/06 00:06:42;;;;;;;3.80;1.73;;;;;;;;;;4995883;28;20054;-37
2022/01/06 00:09:10;;;;;;;3.78;1.50;;;;;;;;;;4995858;28;20034;-36
2022/01/06 00:11:35;;;;;;;2.40;1.70;;;;;;;;;;4996038;28;20030;-36
2022/01/06 00:14:08;;;;;;;1.70;1.27;;;;;;;;;;4996034;28;20038;-37
2022/01/06 00:24:20;;;;;;;3.38;1.83;;;;;;;;;;4995535;28;20065;-38
2022/01/06 00:26:48;;;;;;;2.15;1.42;;;;;;;;;;4995554;28;20030;-37
2022/01/06 00:29:14;;;;;;;2.10;1.60;;;;;;;;;;4995824;28;20014;-38
2022/01/06 00:31:40;;;;;;;2.33;1.63;;;;;;;;;;4995400;28;20034;-38
2022/01/06 00:34:10;;;;;;;2.78;1.80;;;;;;;;;;4995301;28;20026;-37
2022/01/06 00:36:42;;;;;;;4.88;1.52;;;;;;;;;;4994869;28;20030;-37
2022/01/06 00:39:09;;;;;;;3.72;1.55;;;;;;;;;;4994922;28;20034;-37
2022/01/06 00:41:36;;;;;;;2.00;1.20;;;;;;;;;;4995163;28;20030;-37
2022/01/06 00:44:04;;;;;;;2.38;1.52;;;;;;;;;;4995181;28;20596;-37
2022/01/06 00:46:29;;;;;;;1.83;1.40;;;;;;;;;;4995015;28;20454;-37
2022/01/06 00:48:55;;;;;;;4.05;1.52;;;;;;;;;;4995092;28;20030;-37
2022/01/06 00:51:21;;;;;;;2.38;1.50;;;;;;;;;;4995300;28;20027;-36
2022/01/06 00:53:47;;;;;;;3.28;1.80;;;;;;;;;;4994884;28;20042;-38
2022/01/06 00:56:14;;;;;;;3.47;1.27;;;;;;;;;;4994858;28;20046;-37
2022/01/06 00:58:39;;;;;;;4.00;1.50;;;;;;;;;;4995031;28;20049;-36
2022/01/06 01:01:05;;;;;;;2.58;1.58;;;;;;;;;;4994975;28;20030;-38
2022/01/06 01:03:30;;;;;;;2.30;1.65;;;;;;;;;;4994810;28;20054;-37
2022/01/06 01:05:57;;;;;;;5.30;1.80;;;;;;;;;;4994629;28;20391;-37
2022/01/06 01:08:26;;;;;;;1.65;1.45;;;;;;;;;;4994552;28;20030;-39
2022/01/06 01:10:54;;;;;;;2.33;1.33;;;;;;;;;;4994922;28;20057;-36
2022/01/06 01:13:27;;;;;;;2.28;1.55;;;;;;;;;;4994414;28;20686;-37
2022/01/06 01:15:56;;;;;;;4.35;1.63;;;;;;;;;;4994799;28;20022;-36
2022/01/06 01:18:22;;;;;;;5.47;1.60;;;;;;;;;;4994426;28;20031;-38
2022/01/06 01:20:50;;;;;;;3.10;1.42;;;;;;;;;;4994425;28;20026;-38
2022/01/06 01:23:16;;;;;;;2.00;1.35;;;;;;;;;;4994408;28;20364;-38
2022/01/06 01:25:41;;;;;;;1.20;1.10;;;;;;;;;;4994349;28;20614;-38
2022/01/06 01:28:07;;;;;;;2.60;1.40;;;;;;;;;;4994507;28;20097;-38
2022/01/06 01:30:40;;;;;;;3.63;1.67;;;;;;;;;;4994554;28;20034;-38
2022/01/06 01:33:14;;;;;;;2.28;1.60;;;;;;;;;;4993556;28;20068;-37
2022/01/06 01:35:41;;;;;;;3.85;1.80;;;;;;;;;;4994099;28;20493;-37
2022/01/06 01:38:07;;;;;;;3.17;1.50;;;;;;;;;;4992748;28;20034;-38
2022/01/06 01:40:32;;;;;;;6.15;1.45;;;;;;;;;;4994410;28;20031;-37
2022/01/06 01:42:58;;;;;;;1.65;1.40;;;;;;;;;;4994348;28;20029;-38
2022/01/06 01:45:29;;;;;;;2.97;1.33;;;;;;;;;;4994283;28;20026;-37
2022/01/06 01:47:54;;;;;;;4.22;1.65;;;;;;;;;;4994019;28;20031;-38
2022/01/06 01:50:21;;;;;;;5.15;1.90;;;;;;;;;;4993928;28;20026;-37
2022/01/06 01:52:52;;;;;;;3.90;1.58;;;;;;;;;;4993722;28;20486;-37
2022/01/06 01:55:27;;;;;;;4.00;1.50;;;;;;;;;;4994214;28;20030;-37
2022/01/06 01:57:53;;;;;;;5.32;1.73;;;;;;;;;;4993629;28;20458;-37
2022/01/06 02:00:21;;;;;;;4.97;1.52;;;;;;;;;;4993725;28;20030;-38
2022/01/06 02:02:47;;;;;;;2.58;1.52;;;;;;;;;;4993933;28;20030;-38
2022/01/06 02:05:13;;;;;;;4.07;1.27;;;;;;;;;;4993178;28;20121;-38
2022/01/06 02:07:41;;;;;;;3.40;1.00;;;;;;;;;;4993778;28;20038;-37
2022/01/06 02:10:09;;;;;;;3.72;1.48;;;;;;;;;;4993640;28;20018;-37
2022/01/06 02:12:37;;;;;;;2.58;1.85;;;;;;;;;;4992317;28;20360;-38
2022/01/06 02:15:08;;;;;;;2.50;1.33;;;;;;;;;;4992610;28;20383;-37
2022/01/06 02:17:36;;;;;;;2.70;1.50;;;;;;;;;;4993270;28;20027;-37
2022/01/06 02:20:08;;;;;;;2.15;1.50;;;;;;;;;;4993505;28;20034;-38
2022/01/06 02:22:34;;;;;;;2.40;1.38;;;;;;;;;;4993357;28;20022;-37
2022/01/06 02:25:12;;;;;;;1.88;1.30;;;;;;;;;;4993680;28;20030;-39
2022/01/06 02:27:37;;;;;;;2.72;1.50;;;;;;;;;;4993319;28;20041;-37
2022/01/06 02:30:05;;;;;;;3.30;1.60;;;;;;;;;;4993535;28;20030;-38
2022/01/06 02:32:30;;;;;;;2.50;1.40;;;;;;;;;;4993254;28;20544;-38
2022/01/06 02:34:56;;;;;;;2.50;1.30;;;;;;;;;;4993304;28;20030;-37
2022/01/06 02:37:21;;;;;;;2.00;1.48;;;;;;;;;;4993299;28;20034;-37
2022/01/06 02:39:47;;;;;;;1.40;1.30;;;;;;;;;;4993344;28;20030;-39
2022/01/06 02:42:12;;;;;;;3.03;1.58;;;;;;;;;;4993390;28;20026;-38
2022/01/06 02:44:39;;;;;;;3.72;1.80;;;;;;;;;;4993422;28;20386;-37
2022/01/06 02:47:08;;;;;;;1.63;1.38;;;;;;;;;;4993364;28;20026;-37
2022/01/06 02:49:34;;;;;;;2.83;1.52;;;;;;;;;;4992869;28;20105;-38
2022/01/06 02:52:00;;;;;;;2.38;1.67;;;;;;;;;;4993055;28;20057;-38
2022/01/06 02:54:27;;;;;;;4.43;1.83;;;;;;;;;;4991738;28;20042;-37
2022/01/06 02:56:52;;;;;;;4.72;1.90;;;;;;;;;;4992031;28;20026;-38
2022/01/06 02:59:19;;;;;;;2.25;1.48;;;;;;;;;;4992963;28;20053;-37
2022/01/06 03:01:44;;;;;;;2.03;1.40;;;;;;;;;;4993205;28;20030;-38
2022/01/06 03:04:12;;;;;;;1.52;1.42;;;;;;;;;;4993307;28;20493;-38
2022/01/06 03:06:38;;;;;;;3.38;1.65;;;;;;;;;;4992956;28;20030;-37
2022/01/06 03:09:05;;;;;;;3.40;1.60;;;;;;;;;;4992972;28;20022;-38
2022/01/06 03:11:30;;;;;;;2.40;1.73;;;;;;;;;;4992956;28;20110;-38
2022/01/06 03:13:56;;;;;;;4.65;1.60;;;;;;;;;;4993208;28;20042;-38
2022/01/06 03:16:22;;;;;;;6.45;1.80;;;;;;;;;;4992867;28;20478;-37
2022/01/06 03:18:48;;;;;;;3.17;1.52;;;;;;;;;;4992709;28;20077;-37
2022/01/06 03:21:13;;;;;;;5.70;1.70;;;;;;;;;;4992892;28;20035;-37
2022/01/06 03:23:39;;;;;;;2.25;1.52;;;;;;;;;;4993060;28;20030;-38
2022/01/06 03:26:05;;;;;;;2.97;1.40;;;;;;;;;;4992789;28;20455;-39
2022/01/06 03:28:31;;;;;;;1.83;1.48;;;;;;;;;;4992762;28;20050;-38
2022/01/06 03:30:57;;;;;;;3.88;1.40;;;;;;;;;;4993047;28;20031;-38
2022/01/06 03:33:22;;;;;;;1.80;1.60;;;;;;;;;;4994448;28;20049;-37
2022/01/06 03:35:48;;;;;;;4.95;1.58;;;;;;;;;;4996736;28;20030;-38
2022/01/06 03:38:14;;;;;;;3.88;1.60;;;;;;;;;;4996672;28;20035;-38
2022/01/06 03:40:40;;;;;;;4.10;1.80;;;;;;;;;;4996426;28;20027;-38
2022/01/06 03:43:06;;;;;;;2.88;1.70;;;;;;;;;;4996678;28;20026;-38
2022/01/06 03:45:33;;;;;;;3.33;1.50;;;;;;;;;;4996557;28;20165;-38
2022/01/06 03:47:59;;;;;;;4.57;1.67;;;;;;;;;;4996275;28;20030;-38
2022/01/06 03:50:25;;;;;;;3.28;1.30;;;;;;;;;;4996150;28;20522;-37
2022/01/06 03:52:50;;;;;;;3.88;1.77;;;;;;;;;;4996035;28;20161;-37
2022/01/06 03:55:18;;;;;;;4.63;1.63;;;;;;;;;;4996498;28;20082;-38
2022/01/06 03:57:45;;;;;;;4.18;1.83;;;;;;;;;;4995970;28;20034;-37
2022/01/06 04:00:13;;;;;;;1.60;1.50;;;;;;;;;;4996267;28;20036;-37
2022/01/06 04:02:39;;;;;;;3.70;1.80;;;;;;;;;;4996342;28;20019;-37
2022/01/06 04:05:06;;;;;;;4.82;1.98;;;;;;;;;;4996169;28;20027;-37
2022/01/06 04:07:32;;;;;;;5.68;1.80;;;;;;;;;;4994683;28;20034;-38
2022/01/06 04:09:58;;;;;;;8.85;1.80;;;;;;;;;;4995831;28;20026;-37
2022/01/06 04:12:24;;;;;;;4.55;1.70;;;;;;;;;;4995827;28;20113;-37
2022/01/06 04:14:50;;;;;;;4.70;2.10;;;;;;;;;;4995860;28;20544;-38
2022/01/06 04:17:16;;;;;;;3.22;1.70;;;;;;;;;;4996005;28;20033;-37
2022/01/06 04:19:41;;;;;;;2.65;1.60;;;;;;;;;;4995814;28;20027;-37
2022/01/06 04:22:07;;;;;;;2.35;1.60;;;;;;;;;;4995560;28;20553;-38
2022/01/06 04:24:33;;;;;;;4.55;2.50;;;;;;;;;;4995593;28;20027;-37
2022/01/06 04:26:58;;;;;;;4.63;1.98;;;;;;;;;;4995515;28;20105;-37
2022/01/06 04:29:24;;;;;;;4.90;2.05;;;;;;;;;;4995585;28;20141;-37
2022/01/06 04:31:49;;;;;;;3.05;1.80;;;;;;;;;;4995449;28;20061;-37
2022/01/06 04:34:15;;;;;;;3.22;1.80;;;;;;;;;;4995708;28;20026;-38
2022/01/06 04:36:47;;;;;;;2.97;1.60;;;;;;;;;;4994185;28;20475;-37
2022/01/06 04:39:12;;;;;;;4.07;1.98;;;;;;;;;;4995585;28;20367;-38
2022/01/06 04:41:38;;;;;;;5.38;2.40;;;;;;;;;;4995256;28;20034;-37
2022/01/06 04:44:03;;;;;;;6.68;3.10;;;;;;;;;;4994972;28;20038;-38
2022/01/06 04:46:29;;;;;;;10.95;4.40;;;;;;;;;;4995589;28;20022;-37
2022/01/06 04:48:54;;;;;;;6.05;3.63;;;;;;;;;;4995472;28;20479;-37
2022/01/06 04:51:19;;;;;;;6.38;3.65;;;;;;;;;;4995405;28;20026;-38
2022/01/06 04:53:45;;;;;;;7.35;3.60;;;;;;;;;;4994943;28;20130;-37
2022/01/06 04:56:10;;;;;;;4.88;2.90;;;;;;;;;;4995284;28;20034;-37
2022/01/06 04:58:36;;;;;;;5.82;2.47;;;;;;;;;;4995232;28;20125;-37
2022/01/06 05:01:01;;;;;;;5.72;2.53;;;;;;;;;;4995202;28;20030;-37
2022/01/06 05:03:27;;;;;;;5.32;2.58;;;;;;;;;;4995109;28;20105;-38
2022/01/06 05:05:52;;;;;;;4.93;2.40;;;;;;;;;;4994977;28;20077;-37
2022/01/06 05:08:18;;;;;;;6.22;2.22;;;;;;;;;;4994842;28;20030;-37
2022/01/06 05:10:43;;;;;;;3.97;2.38;;;;;;;;;;4994691;28;20085;-37
2022/01/06 05:13:09;;;;;;;3.75;2.35;;;;;;;;;;4994696;28;20054;-37
2022/01/06 05:15:34;;;;;;;5.40;2.70;;;;;;;;;;4993592;28;20034;-37
2022/01/06 05:18:00;;;;;;;5.57;2.35;;;;;;;;;;4994714;28;20030;-38
2022/01/06 05:20:26;;;;;;;3.03;1.88;;;;;;;;;;4994462;28;20030;-38
2022/01/06 05:22:55;;;;;;;3.90;2.53;;;;;;;;;;4994667;28;20062;-38
2022/01/06 05:25:25;;;;;;;5.65;2.53;;;;;;;;;;4994649;28;20026;-38
2022/01/06 05:27:50;;;;;;;6.53;3.17;;;;;;;;;;4994633;28;20066;-37
2022/01/06 05:30:16;;;;;;;8.32;3.55;;;;;;;;;;4994283;28;20062;-37
2022/01/06 05:32:41;;;;;;;4.50;2.42;;;;;;;;;;4994618;28;20533;-37
2022/01/06 05:35:07;;;;;;;9.60;3.22;;;;;;;;;;4994189;28;20023;-38
2022/01/06 05:37:33;;;;;;;9.23;2.70;;;;;;;;;;4994036;28;20033;-39
2022/01/06 05:39:58;;;;;;;5.07;2.50;;;;;;;;;;4994136;28;20046;-37
2022/01/06 05:42:24;;;;;;;5.32;2.50;;;;;;;;;;4994135;28;20398;-38
2022/01/06 05:44:49;;;;;;;5.47;2.78;;;;;;;;;;4994459;28;20516;-38
2022/01/06 05:47:15;;;;;;;5.18;3.38;;;;;;;;;;4994101;28;20688;-38
2022/01/06 05:49:40;;;;;;;10.15;3.03;;;;;;;;;;4993907;28;20037;-38
2022/01/06 05:52:06;;;;;;;9.20;4.35;;;;;;;;;;4994213;28;20027;-38
2022/01/06 05:54:32;;;;;;;5.65;3.20;;;;;;;;;;4993611;28;20495;-41
2022/01/06 05:56:58;;;;;;;6.90;3.10;;;;;;;;;;4993481;28;20050;-38
2022/01/06 05:59:23;;;;;;;8.77;3.72;;;;;;;;;;4993916;28;20475;-38
2022/01/06 06:01:48;;;;;;;10.07;3.50;;;;;;;;;;4993727;28;20392;-40
2022/01/06 06:04:14;;;;;;;9.63;4.43;;;;;;;;;;4993962;28;20022;-38
2022/01/06 06:06:40;;;;;;;13.73;5.10;;;;;;;;;;4994032;28;20030;-38
2022/01/06 06:09:06;;;;;;;7.88;4.13;;;;;;;;;;4993585;28;20414;-40
2022/01/06 06:11:32;;;;;;;4.60;2.95;;;;;;;;;;4993708;28;20022;-38
2022/01/06 06:13:57;;;;;;;4.93;2.97;;;;;;;;;;4993810;28;20385;-37
2022/01/06 06:16:24;;;;;;;5.82;3.95;;;;;;;;;;4993772;28;20096;-42
2022/01/06 06:18:50;;;;;;;9.88;3.83;;;;;;;;;;4993405;28;20117;-41
2022/01/06 06:21:16;;;;;;;15.63;4.70;;;;;;;;;;4993762;28;20062;-40
2022/01/06 06:23:42;;;;;;;7.15;3.00;;;;;;;;;;4993707;28;20033;-38
2022/01/06 06:26:07;;;;;;;8.45;3.40;;;;;;;;;;4993704;28;20026;-37
2022/01/06 06:28:33;;;;;;;8.30;3.75;;;;;;;;;;4993595;28;20109;-39
2022/01/06 06:30:59;;;;;;;12.73;4.18;;;;;;;;;;4993670;28;20113;-38
2022/01/06 06:33:24;;;;;;;5.72;3.70;;;;;;;;;;4993263;28;20529;-39
2022/01/06 06:35:50;;;;;;;8.50;3.92;;;;;;;;;;4993273;28;20034;-38
2022/01/06 06:38:15;;;;;;;10.57;3.40;;;;;;;;;;4993211;28;20030;-38
2022/01/06 06:40:41;;;;;;;3.70;3.03;;;;;;;;;;4993220;28;20030;-38
2022/01/06 06:43:11;;;;;;;6.53;3.53;;;;;;;;;;4993167;28;20027;-37
2022/01/06 06:45:37;;;;;;;8.07;3.90;;;;;;;;;;4993495;28;20038;-39
2022/01/06 06:48:03;;;;;;;8.13;3.95;;;;;;;;;;4993035;28;20034;-38
2022/01/06 06:50:28;;;;;;;9.55;4.38;;;;;;;;;;4993364;28;20355;-38
2022/01/06 06:52:53;;;;;;;9.65;5.00;;;;;;;;;;4993127;28;20058;-38
2022/01/06 06:55:19;;;;;;;11.75;3.50;;;;;;;;;;4993083;28;20056;-37
2022/01/06 06:57:44;;;;;;;7.90;3.63;;;;;;;;;;4991784;28;20027;-38
2022/01/06 07:00:10;;;;;;;10.50;4.88;;;;;;;;;;4993187;28;20026;-38
2022/01/06 07:02:36;;;;;;;7.13;3.60;;;;;;;;;;4991601;28;20030;-38
2022/01/06 07:05:02;;;;;;;5.85;3.22;;;;;;;;;;4993167;28;20511;-38
2022/01/06 07:07:28;;;;;;;11.27;4.10;;;;;;;;;;4994987;28;20018;-39
2022/01/06 07:09:53;;;;;;;10.57;4.35;;;;;;;;;;4997387;28;20038;-44
2022/01/06 07:12:19;;;;;;;16.20;9.23;;;;;;;;;;4997207;28;20030;-38
2022/01/06 07:14:44;;;;;;;17.85;9.65;;;;;;;;;;4997308;28;20085;-39
2022/01/06 07:17:10;;;;;;;16.00;9.75;;;;;;;;;;4997259;28;20109;-40
2022/01/06 07:19:36;;;;;;;12.63;7.90;;;;;;;;;;4995569;28;20038;-39
2022/01/06 07:22:03;;;;;;;10.65;7.43;;;;;;;;;;4996564;28;20546;-38
2022/01/06 07:24:28;;;;;;;8.55;4.00;;;;;;;;;;4996995;28;20165;-40
2022/01/06 07:26:54;;;;;;;8.85;4.18;;;;;;;;;;4996704;28;20069;-41
2022/01/06 07:29:19;;;;;;;10.98;4.32;;;;;;;;;;4996883;28;20031;-38
2022/01/06 07:31:45;;;;;;;7.10;3.80;;;;;;;;;;4996994;28;20030;-38
2022/01/06 07:34:11;;;;;;;8.45;4.22;;;;;;;;;;4996892;28;20033;-38
2022/01/06 07:36:36;;;;;;;6.57;3.50;;;;;;;;;;4996974;28;20026;-38
2022/01/06 07:39:03;;;;;;;8.45;3.80;;;;;;;;;;4996600;28;20117;-40
2022/01/06 07:41:29;;;;;;;7.20;3.45;;;;;;;;;;4996499;28;20437;-38
2022/01/06 07:43:54;;;;;;;9.35;3.90;;;;;;;;;;4996663;28;20113;-38
2022/01/06 07:46:20;;;;;;;10.82;3.13;;;;;;;;;;4996606;28;20105;-38
2022/01/06 07:48:56;;;;;;;9.57;4.15;;;;;;;;;;4996584;28;20367;-38
2022/01/06 07:51:25;;;;;;;8.50;4.05;;;;;;;;;;4996518;28;20081;-38
2022/01/06 07:53:52;;;;;;;19.75;6.97;;;;;;;;;;4996129;28;20105;-41
2022/01/06 07:56:17;;;;;;;13.52;6.05;;;;;;;;;;4996536;28;20117;-39
2022/01/06 07:58:43;;;;;;;12.88;5.85;;;;;;;;;;4996493;28;20113;-38
2022/01/06 08:01:10;;;;;;;16.52;7.35;;;;;;;;;;4996215;28;20022;-40
2022/01/06 08:03:35;;;;;;;17.70;7.53;;;;;;;;;;4996292;28;20547;-40
2022/01/06 08:06:01;;;;;;;18.77;8.15;;;;;;;;;;4996019;28;20038;-38
2022/01/06 08:08:26;;;;;;;22.67;12.18;;;;;;;;;;4996169;28;20525;-39
2022/01/06 08:10:52;;;;;;;23.95;11.18;;;;;;;;;;4996310;28;20029;-38
2022/01/06 08:13:17;;;;;;;12.73;5.65;;;;;;;;;;4996027;28;20030;-38
2022/01/06 08:15:43;;;;;;;7.88;3.83;;;;;;;;;;4996195;28;20065;-44
2022/01/06 08:18:09;;;;;;;6.18;3.35;;;;;;;;;;4995411;28;20102;-39
2022/01/06 08:20:36;;;;;;;7.40;3.30;;;;;;;;;;4995910;28;20463;-39
2022/01/06 08:23:02;;;;;;;10.02;3.75;;;;;;;;;;4995699;28;20367;-37
2022/01/06 08:25:27;;;;;;;13.00;3.28;;;;;;;;;;4995973;28;20041;-38
2022/01/06 08:27:53;;;;;;;11.45;3.22;;;;;;;;;;4995812;28;20022;-38
2022/01/06 08:30:18;;;;;;;6.93;3.60;;;;;;;;;;4995841;28;20030;-38
2022/01/06 08:32:44;;;;;;;7.13;3.60;;;;;;;;;;4995640;28;20030;-38
2022/01/06 08:35:10;;;;;;;10.05;4.03;;;;;;;;;;4995672;28;20034;-39
2022/01/06 08:37:35;;;;;;;6.40;4.80;;;;;;;;;;4995443;28;20036;-40
2022/01/06 08:40:02;;;;;;;7.25;3.92;;;;;;;;;;4995672;28;20084;-38
2022/01/06 08:42:28;;;;;;;7.93;3.17;;;;;;;;;;4995547;28;20114;-39
2022/01/06 08:44:53;;;;;;;11.10;5.00;;;;;;;;;;4995602;28;20053;-38
2022/01/06 08:47:19;;;;;;;5.75;3.40;;;;;;;;;;4995594;28;20078;-39
2022/01/06 08:49:44;;;;;;;9.52;3.85;;;;;;;;;;4995453;28;20501;-38
2022/01/06 08:52:10;;;;;;;7.60;3.95;;;;;;;;;;4995382;28;20033;-44
2022/01/06 08:54:36;;;;;;;8.50;3.60;;;;;;;;;;4995107;28;20047;-38
2022/01/06 08:57:01;;;;;;;6.25;3.22;;;;;;;;;;4995457;28;20072;-38
2022/01/06 08:59:27;;;;;;;9.50;3.88;;;;;;;;;;4995307;28;20030;-38
2022/01/06 09:01:53;;;;;;;10.55;3.58;;;;;;;;;;4994109;28;20101;-38
2022/01/06 09:04:20;;;;;;;7.25;3.60;;;;;;;;;;4995059;28;20060;-38
2022/01/06 09:06:48;;;;;;;5.13;3.42;;;;;;;;;;4995215;28;20034;-40
2022/01/06 09:09:13;;;;;;;8.98;4.00;;;;;;;;;;4995192;28;20049;-38
2022/01/06 09:11:39;;;;;;;6.38;3.58;;;;;;;;;;4995143;28;20474;-40
2022/01/06 09:14:05;;;;;;;10.93;4.43;;;;;;;;;;4994891;28;20466;-38
2022/01/06 09:16:30;;;;;;;9.65;3.95;;;;;;;;;;4994741;28;20033;-38
2022/01/06 09:18:55;;;;;;;19.45;8.60;;;;;;;;;;4994946;28;20045;-39
2022/01/06 09:21:22;;;;;;;11.50;4.72;;;;;;;;;;4994778;28;20031;-41
2022/01/06 09:23:52;;;;;;;6.82;3.97;;;;;;;;;;4994551;28;20085;-38
2022/01/06 09:26:18;;;;;;;8.27;3.33;;;;;;;;;;4994530;28;20085;-38
2022/01/06 09:28:44;;;;;;;9.65;4.32;;;;;;;;;;4994813;28;20085;-38
2022/01/06 09:31:10;;;;;;;9.13;3.30;;;;;;;;;;4993401;28;20101;-39
2022/01/06 09:33:36;;;;;;;6.60;3.97;;;;;;;;;;4994393;28;20065;-38
2022/01/06 09:36:02;;;;;;;9.38;3.50;;;;;;;;;;4994419;28;20026;-37
2022/01/06 09:38:28;;;;;;;8.30;3.22;;;;;;;;;;4994156;28;20048;-43
2022/01/06 09:40:53;;;;;;;8.30;3.95;;;;;;;;;;4994392;28;20471;-38
2022/01/06 09:43:26;;;;;;;7.80;4.13;;;;;;;;;;4994194;28;20026;-42
2022/01/06 09:45:52;;;;;;;8.88;3.70;;;;;;;;;;4994388;28;20026;-39
2022/01/06 09:48:20;;;;;;;13.38;7.20;;;;;;;;;;4994127;28;20386;-40
2022/01/06 09:50:45;;;;;;;17.63;7.90;;;;;;;;;;4976597;28;20030;-41
2022/01/06 09:53:11;;;;;;;18.42;8.10;;;;;;;;;;4993979;28;20061;-44
2022/01/06 09:55:38;;;;;;;7.47;4.32;;;;;;;;;;4994157;28;20037;-41
2022/01/06 09:58:04;;;;;;;4.82;3.17;;;;;;;;;;4993861;28;20478;-38
2022/01/06 10:00:32;;;;;;;8.23;3.28;;;;;;;;;;4994216;28;20031;-39
2022/01/06 10:03:00;;;;;;;11.50;3.95;;;;;;;;;;4993841;28;20064;-37
2022/01/06 10:05:26;;;;;;;7.35;3.75;;;;;;;;;;4993702;28;20363;-38
2022/01/06 10:07:55;;;;;;;10.02;4.07;;;;;;;;;;4991295;28;20054;-37
2022/01/06 10:10:25;;;;;;;8.85;3.80;;;;;;;;;;4991767;28;20019;-38
2022/01/06 10:13:00;;;;;;;8.75;3.30;;;;;;;;;;4992288;28;20026;-41
2022/01/06 10:15:28;;;;;;;10.10;3.55;;;;;;;;;;4990583;28;20030;-37
2022/01/06 10:17:55;;;;;;;11.50;4.55;;;;;;;;;;4991592;28;20026;-40
2022/01/06 10:20:27;;;;;;;10.80;3.83;;;;;;;;;;4991580;28;20114;-41
2022/01/06 10:22:57;;;;;;;9.43;3.13;;;;;;;;;;4991826;28;20054;-38
2022/01/06 10:25:26;;;;;;;8.85;3.65;;;;;;;;;;4991484;28;20065;-39
2022/01/06 10:27:56;;;;;;;9.45;3.80;;;;;;;;;;4992937;28;20031;-40
2022/01/06 10:30:22;;;;;;;10.35;5.88;;;;;;;;;;4993494;28;20034;-40
2022/01/06 10:32:48;;;;;;;17.30;9.18;;;;;;;;;;4993574;28;20440;-40
2022/01/06 10:35:17;;;;;;;19.30;7.97;;;;;;;;;;4992639;28;20097;-38
2022/01/06 10:37:46;;;;;;;10.77;3.33;;;;;;;;;;4990415;28;20022;-39
2022/01/06 10:40:26;;;;;;;4.30;2.67;;;;;;;;;;4992425;28;20026;-40
2022/01/06 10:42:57;;;;;;;10.73;3.60;;;;;;;;;;4991773;28;20511;-40
2022/01/06 10:45:26;;;;;;;6.28;3.58;;;;;;;;;;4991127;28;20487;-40
2022/01/06 10:47:57;;;;;;;7.65;3.67;;;;;;;;;;4991502;28;20037;-38
2022/01/06 10:50:24;;;;;;;7.53;3.47;;;;;;;;;;4991133;28;20045;-41
2022/01/06 10:53:01;;;;;;;8.25;3.55;;;;;;;;;;4990814;28;20112;-40
2022/01/06 10:55:29;;;;;;;8.93;4.30;;;;;;;;;;4991171;28;20038;-40
2022/01/06 10:58:29;;;;;;;8.18;3.50;;;;;;;;;;4990971;28;20038;-41
2022/01/06 11:00:55;;;;;;;5.78;3.50;;;;;;;;;;4982117;28;20061;-40
2022/01/06 11:03:23;;;;;;;8.25;3.60;;;;;;;;;;4991109;28;20169;-41
2022/01/06 11:05:52;;;;;;;8.38;3.55;;;;;;;;;;4991189;28;20383;-45
2022/01/06 11:08:26;;;;;;;7.95;3.85;;;;;;;;;;4990663;28;20474;-41
2022/01/06 11:13:49;;;;;;;6.68;3.33;;;;;;;;;;4988088;28;20038;-39
2022/01/06 11:16:19;;;;;;;4.72;3.55;;;;;;;;;;4989553;28;20027;-41
2022/01/06 11:18:56;;;;;;;13.80;3.38;;;;;;;;;;4990348;28;20042;-44
2022/01/06 11:21:25;;;;;;;4.68;2.85;;;;;;;;;;4989825;28;20069;-39
2022/01/06 11:24:04;;;;;;;5.90;3.20;;;;;;;;;;4991465;28;20031;-41
2022/01/06 11:26:29;;;;;;;7.75;3.22;;;;;;;;;;4991090;28;20465;-41
2022/01/06 11:29:01;;;;;;;5.43;2.90;;;;;;;;;;4991231;28;20117;-38
2022/01/06 11:31:37;;;;;;;7.03;3.08;;;;;;;;;;4991180;28;20030;-42
2022/01/06 11:34:19;;;;;;;6.82;3.13;;;;;;;;;;4991442;28;20034;-39
2022/01/06 11:36:46;;;;;;;5.90;2.85;;;;;;;;;;4990620;28;20037;-41
2022/01/06 11:39:28;;;;;;;7.95;3.30;;;;;;;;;;4991214;28;20060;-42
2022/01/06 11:41:55;;;;;;;7.85;3.08;;;;;;;;;;4991178;28;20034;-39
2022/01/06 11:44:32;;;;;;;6.63;2.80;;;;;;;;;;4991327;28;20087;-43
2022/01/06 11:47:03;;;;;;;7.80;2.47;;;;;;;;;;4991077;28;20025;-41
2022/01/06 11:49:39;;;;;;;8.23;3.78;;;;;;;;;;4991650;28;20038;-42
2022/01/06 11:52:10;;;;;;;6.28;3.30;;;;;;;;;;4990949;28;20454;-41
2022/01/06 11:54:53;;;;;;;7.13;3.25;;;;;;;;;;4992589;28;20149;-41
2022/01/06 11:57:31;;;;;;;8.13;3.75;;;;;;;;;;4994604;28;20040;-45
2022/01/06 11:59:59;;;;;;;6.78;3.40;;;;;;;;;;4994060;28;20053;-44
2022/01/06 12:02:24;;;;;;;6.70;3.67;;;;;;;;;;4994464;28;20065;-42
2022/01/06 12:04:59;;;;;;;12.35;5.28;;;;;;;;;;4994510;28;20026;-45
2022/01/06 12:07:26;;;;;;;8.68;5.38;;;;;;;;;;4994548;28;20110;-43
2022/01/06 12:10:02;;;;;;;15.30;6.10;;;;;;;;;;4994478;28;20037;-45
2022/01/06 12:12:39;;;;;;;11.07;5.22;;;;;;;;;;4994561;28;20117;-44
2022/01/06 12:15:13;;;;;;;9.10;3.55;;;;;;;;;;4993686;28;20044;-39
2022/01/06 12:17:46;;;;;;;20.70;5.05;;;;;;;;;;4993810;28;20037;-44
2022/01/06 12:20:18;;;;;;;6.57;3.40;;;;;;;;;;4993441;28;20041;-44
2022/01/06 12:22:43;;;;;;;9.02;3.88;;;;;;;;;;4993910;28;20037;-42
2022/01/06 12:25:09;;;;;;;8.00;3.40;;;;;;;;;;4993509;28;20018;-39
2022/01/06 12:27:44;;;;;;;9.30;4.13;;;;;;;;;;4993945;28;20040;-42
2022/01/06 12:30:10;;;;;;;11.00;4.55;;;;;;;;;;4993366;28;20061;-40
2022/01/06 12:32:36;;;;;;;10.02;3.58;;;;;;;;;;4993174;28;20046;-41
2022/01/06 12:35:01;;;;;;;7.53;3.15;;;;;;;;;;4993259;28;20018;-40
2022/01/06 12:37:28;;;;;;;7.30;2.88;;;;;;;;;;4993392;28;20029;-38
2022/01/06 12:39:59;;;;;;;7.43;3.20;;;;;;;;;;4993277;28;20410;-45
2022/01/06 12:42:25;;;;;;;10.90;5.00;;;;;;;;;;4990646;28;20514;-49
2022/01/06 12:44:52;;;;;;;21.05;7.20;;;;;;;;;;4993279;28;20102;-39
2022/01/06 12:47:19;;;;;;;16.55;9.50;;;;;;;;;;4993472;28;20490;-44
2022/01/06 12:49:45;;;;;;;19.15;9.73;;;;;;;;;;4993023;28;20378;-47
2022/01/06 12:52:11;;;;;;;7.18;3.50;;;;;;;;;;4993039;28;20030;-39
2022/01/06 12:54:38;;;;;;;11.85;4.40;;;;;;;;;;4992037;28;20042;-45
2022/01/06 12:57:06;;;;;;;8.30;4.15;;;;;;;;;;4992432;28;20039;-41
2022/01/06 12:59:39;;;;;;;8.77;3.83;;;;;;;;;;4992107;28;20542;-44
2022/01/06 13:02:13;;;;;;;6.47;2.90;;;;;;;;;;4992855;28;20061;-41
2022/01/06 13:04:44;;;;;;;9.30;3.42;;;;;;;;;;4992711;28;20038;-44
2022/01/06 13:07:11;;;;;;;8.38;3.20;;;;;;;;;;4992660;28;20114;-44
2022/01/06 13:09:39;;;;;;;5.65;3.00;;;;;;;;;;4992859;28;20537;-46
2022/01/06 13:12:08;;;;;;;8.23;4.05;;;;;;;;;;4993199;28;20085;-44
2022/01/06 13:14:41;;;;;;;8.55;3.75;;;;;;;;;;4992714;28;20027;-46
2022/01/06 13:17:14;;;;;;;7.90;3.40;;;;;;;;;;4994191;28;20510;-41
2022/01/06 13:20:01;;;;;;;10.38;4.40;;;;;;;;;;4993610;28;20069;-45
2022/01/06 13:23:11;;;;;;;8.55;3.80;;;;;;;;;;4986325;28;20115;-46
2022/01/06 13:25:37;;;;;;;10.13;4.10;;;;;;;;;;4992877;28;20038;-40
2022/01/06 13:28:10;;;;;;;8.90;3.75;;;;;;;;;;4993059;28;20074;-46
2022/01/06 13:30:40;;;;;;;9.85;3.42;;;;;;;;;;4993011;28;20026;-47
2022/01/06 13:33:08;;;;;;;5.63;3.30;;;;;;;;;;4993114;28;20054;-47
2022/01/06 13:35:45;;;;;;;11.55;3.78;;;;;;;;;;4992919;28;20037;-49
2022/01/06 13:38:18;;;;;;;8.27;3.70;;;;;;;;;;4992735;28;20113;-45
2022/01/06 13:40:55;;;;;;;7.45;3.65;;;;;;;;;;4992919;28;20061;-45
2022/01/06 13:43:24;;;;;;;6.82;3.30;;;;;;;;;;4992673;28;20034;-46
2022/01/06 13:45:51;;;;;;;7.00;3.50;;;;;;;;;;4992712;28;20130;-42
2022/01/06 13:51:07;;;;;;;9.82;4.95;;;;;;;;;;4992579;28;20048;-42
2022/01/06 13:53:36;;;;;;;8.77;3.70;;;;;;;;;;4992391;28;20502;-43
2022/01/06 13:56:32;;;;;;;8.48;3.50;;;;;;;;;;4992617;28;20061;-41
2022/01/06 13:59:00;;;;;;;11.73;6.30;;;;;;;;;;4992243;28;20133;-38
2022/01/06 14:01:27;;;;;;;17.00;8.38;;;;;;;;;;4992627;28;20030;-48
2022/01/06 14:03:57;;;;;;;9.15;4.82;;;;;;;;;;4992468;28;20073;-45
2022/01/06 14:06:23;;;;;;;9.13;4.28;;;;;;;;;;4992636;28;20026;-41
2022/01/06 14:08:48;;;;;;;31.15;5.70;;;;;;;;;;4992412;28;20030;-42
2022/01/06 14:11:17;;;;;;;8.23;4.70;;;;;;;;;;4991767;28;20030;-40
2022/01/06 14:13:44;;;;;;;13.15;5.90;;;;;;;;;;4992011;28;20378;-43
2022/01/06 14:16:10;;;;;;;11.85;5.68;;;;;;;;;;4991593;28;20076;-45
2022/01/06 14:18:36;;;;;;;11.93;4.20;;;;;;;;;;4992081;28;20458;-44
2022/01/06 14:21:02;;;;;;;5.40;3.60;;;;;;;;;;4992089;28;20030;-40
2022/01/06 14:23:30;;;;;;;8.73;3.80;;;;;;;;;;4992052;28;20046;-43
2022/01/06 14:25:57;;;;;;;5.65;3.67;;;;;;;;;;4992168;28;20121;-46
2022/01/06 14:28:23;;;;;;;10.35;4.35;;;;;;;;;;4992129;28;20486;-48
2022/01/06 14:30:48;;;;;;;9.80;4.50;;;;;;;;;;4991358;28;20069;-44
2022/01/06 14:33:14;;;;;;;7.32;3.40;;;;;;;;;;4991771;28;20038;-42
2022/01/06 14:35:39;;;;;;;6.68;3.60;;;;;;;;;;4991676;28;20065;-46
2022/01/06 14:38:05;;;;;;;9.27;3.95;;;;;;;;;;4991930;28;20113;-44
2022/01/06 14:40:31;;;;;;;6.95;3.58;;;;;;;;;;4990269;28;20034;-45
2022/01/06 14:42:58;;;;;;;8.65;4.13;;;;;;;;;;4989660;28;20034;-43
2022/01/06 14:45:26;;;;;;;7.43;3.95;;;;;;;;;;4991598;28;20110;-43
2022/01/06 14:47:52;;;;;;;7.75;4.00;;;;;;;;;;4991737;28;20550;-44
2022/01/06 14:50:17;;;;;;;6.90;3.25;;;;;;;;;;4991828;28;20032;-46
2022/01/06 14:52:44;;;;;;;9.68;4.00;;;;;;;;;;4991102;28;20035;-43
2022/01/06 14:55:11;;;;;;;10.48;3.42;;;;;;;;;;4991886;28;20076;-38
2022/01/06 14:57:37;;;;;;;10.48;3.80;;;;;;;;;;4991391;28;20653;-40